Time;durP1;ratioP1;P1;durP2;ratioP2;P2;SDS_P1;SDS_P2;PMS_P1;PMS_P2;Temp;Humidity;BMP_temperature;BMP_pressure;BME280_temperature;BME280_humidity;BME280_pressure;Samples;Min_cycle;Max_cycle;Signal;HPM_P1;HPM_P2
2023/04/22 00:00:19;;;;;;;14.48;10.75;;;;;;;7.48;100.00;100683.47;5044123;28;20554;-62
2023/04/22 00:02:45;;;;;;;13.20;10.10;;;;;;;7.48;100.00;100683.47;5044215;28;20151;-62
2023/04/22 00:05:12;;;;;;;13.13;10.13;;;;;;;7.49;100.00;100679.84;5042558;28;20045;-62
2023/04/22 00:07:39;;;;;;;12.30;10.43;;;;;;;7.40;99.64;100677.09;5044002;28;20068;-62
2023/04/22 00:10:06;;;;;;;16.30;12.07;;;;;;;7.50;100.00;100678.88;5043391;28;20120;-62
2023/04/22 00:12:33;;;;;;;15.60;11.57;;;;;;;7.45;100.00;100678.50;5041806;28;20025;-63
2023/04/22 00:14:58;;;;;;;15.68;11.90;;;;;;;7.44;100.00;100676.84;5043864;28;20082;-62
2023/04/22 00:17:23;;;;;;;16.63;12.48;;;;;;;7.37;99.94;100682.69;5044509;28;20033;-62
2023/04/22 00:19:49;;;;;;;17.30;12.20;;;;;;;7.33;100.00;100676.03;5045035;28;20033;-63
2023/04/22 00:22:14;;;;;;;14.93;12.13;;;;;;;7.33;100.00;100681.31;5044363;28;20033;-62
2023/04/22 00:24:39;;;;;;;16.15;12.25;;;;;;;7.29;100.00;100666.72;5044475;28;20036;-63
2023/04/22 00:27:05;;;;;;;16.67;12.38;;;;;;;7.34;100.00;100675.03;5045353;28;20354;-62
2023/04/22 00:29:30;;;;;;;16.15;12.30;;;;;;;7.35;100.00;100674.06;5049439;28;20033;-62
2023/04/22 00:31:55;;;;;;;15.57;11.88;;;;;;;7.30;100.00;100668.38;5047261;28;20025;-62
2023/04/22 00:34:20;;;;;;;16.80;12.07;;;;;;;7.28;100.00;100667.72;5049335;28;20029;-62
2023/04/22 00:36:46;;;;;;;16.15;11.95;;;;;;;7.25;100.00;100673.25;5052058;28;20491;-62
2023/04/22 00:39:12;;;;;;;14.48;11.63;;;;;;;7.22;100.00;100668.28;5054635;28;20047;-62
2023/04/22 00:41:38;;;;;;;16.55;11.90;;;;;;;7.25;100.00;100668.81;5051536;28;20029;-63
2023/04/22 00:44:04;;;;;;;15.45;11.77;;;;;;;7.13;100.00;100665.53;5054464;28;20113;-62
2023/04/22 00:46:29;;;;;;;16.45;12.20;;;;;;;7.04;100.00;100676.94;5050136;28;20030;-62
2023/04/22 00:48:56;;;;;;;14.90;11.65;;;;;;;7.11;100.00;100675.38;5051907;28;20045;-62
2023/04/22 00:51:21;;;;;;;14.48;11.18;;;;;;;7.00;100.00;100678.19;5051942;28;20036;-62
2023/04/22 00:53:47;;;;;;;14.20;10.65;;;;;;;7.06;100.00;100685.53;5053486;28;20029;-62
2023/04/22 00:56:12;;;;;;;12.77;10.75;;;;;;;7.10;100.00;100686.91;5053208;28;20451;-63
2023/04/22 00:58:38;;;;;;;13.13;10.60;;;;;;;7.09;100.00;100679.97;5052092;28;20033;-62
2023/04/22 01:01:03;;;;;;;13.48;10.35;;;;;;;7.03;100.00;100680.53;5052973;28;20082;-62
2023/04/22 01:03:29;;;;;;;12.23;10.25;;;;;;;7.07;100.00;100671.38;5052883;28;20047;-62
2023/04/22 01:05:54;;;;;;;13.90;10.95;;;;;;;7.09;100.00;100674.72;5054103;28;20501;-62
2023/04/22 01:08:20;;;;;;;14.00;10.35;;;;;;;7.12;100.00;100668.31;5044960;28;20086;-62
2023/04/22 01:10:45;;;;;;;13.73;10.50;;;;;;;7.15;100.00;100675.13;5046766;28;20484;-63
2023/04/22 01:13:10;;;;;;;14.88;11.18;;;;;;;7.17;100.00;100675.78;5051054;28;22265;-62
2023/04/22 01:15:36;;;;;;;14.68;11.38;;;;;;;7.17;100.00;100666.09;5048331;28;20021;-62
2023/04/22 01:18:02;;;;;;;14.30;10.70;;;;;;;7.21;100.00;100671.91;5051848;28;20060;-62
2023/04/22 01:20:28;;;;;;;14.52;10.80;;;;;;;7.24;100.00;100672.44;5049491;28;20040;-62
2023/04/22 01:22:58;;;;;;;13.63;10.68;;;;;;;7.25;100.00;100663.56;5054416;28;20505;-62
2023/04/22 01:25:25;;;;;;;15.88;11.18;;;;;;;7.25;100.00;100670.63;5052377;28;20032;-63
2023/04/22 01:27:50;;;;;;;13.63;11.07;;;;;;;7.21;100.00;100667.44;5052096;28;20108;-62
2023/04/22 01:30:16;;;;;;;14.40;10.68;;;;;;;7.33;100.00;100665.47;5052805;28;20104;-62
2023/04/22 01:32:41;;;;;;;13.63;10.80;;;;;;;7.32;100.00;100663.81;5053456;28;20071;-62
2023/04/22 01:35:08;;;;;;;14.57;10.75;;;;;;;7.31;100.00;100659.53;5052445;28;20429;-63
2023/04/22 01:37:34;;;;;;;14.70;10.82;;;;;;;7.31;100.00;100659.53;5050445;28;20025;-62
2023/04/22 01:39:59;;;;;;;12.88;10.15;;;;;;;7.31;100.00;100664.78;5052129;28;20423;-62
2023/04/22 01:42:25;;;;;;;15.30;10.75;;;;;;;7.20;100.00;100659.69;5049612;28;20461;-62
2023/04/22 01:44:50;;;;;;;14.75;11.13;;;;;;;7.18;100.00;100664.25;5053359;28;20028;-62
2023/04/22 01:47:16;;;;;;;15.05;10.68;;;;;;;7.16;100.00;100658.31;5052323;28;20151;-62
2023/04/22 01:49:41;;;;;;;14.07;10.93;;;;;;;7.18;100.00;100667.75;5053612;28;20496;-62
2023/04/22 01:52:07;;;;;;;13.73;10.93;;;;;;;7.18;100.00;100657.19;5055192;28;20020;-62
2023/04/22 01:54:32;;;;;;;14.38;10.93;;;;;;;7.23;100.00;100659.41;5049782;28;20112;-62
2023/04/22 01:56:58;;;;;;;13.32;11.20;;;;;;;7.28;100.00;100657.16;5048315;28;20037;-62
2023/04/22 01:59:23;;;;;;;15.07;11.00;;;;;;;7.30;100.00;100655.19;5041901;28;20037;-62
2023/04/22 02:01:48;;;;;;;12.15;9.60;;;;;;;7.24;100.00;100667.16;5049085;28;20076;-62
2023/04/22 02:04:14;;;;;;;11.32;9.05;;;;;;;7.10;100.00;100659.69;5052266;28;20033;-62
2023/04/22 02:06:40;;;;;;;12.80;9.60;;;;;;;6.95;100.00;100656.69;5052194;28;20029;-62
2023/04/22 02:09:05;;;;;;;12.88;9.60;;;;;;;6.88;100.00;100655.59;5053319;28;20041;-62
2023/04/22 02:11:31;;;;;;;13.82;10.40;;;;;;;6.90;100.00;100664.22;5047724;28;20025;-62
2023/04/22 02:13:56;;;;;;;14.20;10.68;;;;;;;6.84;100.00;100650.63;5053712;28;20090;-62
2023/04/22 02:16:21;;;;;;;14.10;10.77;;;;;;;6.90;100.00;100658.94;5052954;28;20037;-62
2023/04/22 02:18:47;;;;;;;14.88;11.63;;;;;;;6.88;100.00;100658.22;5053171;28;20032;-62
2023/04/22 02:21:12;;;;;;;14.35;11.13;;;;;;;6.85;100.00;100649.63;5051161;28;20036;-62
2023/04/22 02:23:38;;;;;;;14.27;10.82;;;;;;;6.91;100.00;100655.31;5052082;28;20113;-63
2023/04/22 02:26:04;;;;;;;13.27;11.13;;;;;;;6.93;100.00;100658.63;5052776;28;20037;-62
2023/04/22 02:28:30;;;;;;;14.48;11.27;;;;;;;6.89;100.00;100651.97;5052351;28;20056;-62
2023/04/22 02:30:56;;;;;;;15.60;12.18;;;;;;;6.83;100.00;100643.69;5048518;28;20029;-62
2023/04/22 02:33:22;;;;;;;15.35;12.23;;;;;;;6.84;100.00;100645.34;5053173;28;20044;-63
2023/04/22 02:35:47;;;;;;;14.30;11.75;;;;;;;6.85;100.00;100636.47;5050915;28;20029;-62
2023/04/22 02:38:12;;;;;;;15.52;11.77;;;;;;;6.89;100.00;100628.25;5052186;28;20037;-63
2023/04/22 02:40:37;;;;;;;14.65;11.18;;;;;;;6.93;100.00;100643.66;5050358;28;20033;-62
2023/04/22 02:43:03;;;;;;;14.90;11.77;;;;;;;6.90;100.00;100629.94;5052673;28;20103;-62
2023/04/22 02:45:28;;;;;;;14.52;11.57;;;;;;;7.01;100.00;100637.69;5051455;28;20376;-62
2023/04/22 02:47:54;;;;;;;16.05;12.18;;;;;;;7.01;100.00;100635.03;5051281;28;20033;-62
2023/04/22 02:50:19;;;;;;;14.32;11.82;;;;;;;7.01;100.00;100635.03;5051229;28;20037;-62
2023/04/22 02:52:45;;;;;;;16.33;12.27;;;;;;;7.01;100.00;100629.78;5052316;28;20046;-62
2023/04/22 02:55:10;;;;;;;16.17;12.02;;;;;;;6.97;100.00;100628.38;5050679;28;20404;-62
2023/04/22 02:57:35;;;;;;;16.95;11.82;;;;;;;7.00;100.00;100625.44;5049856;28;20044;-62
2023/04/22 03:00:00;;;;;;;15.38;11.95;;;;;;;7.07;100.00;100616.03;5051868;28;20059;-63
2023/04/22 03:02:26;;;;;;;14.65;12.05;;;;;;;7.02;100.00;100628.78;5051287;28;20036;-62
2023/04/22 03:04:53;;;;;;;16.05;12.20;;;;;;;7.05;100.00;100625.03;5050514;28;20496;-63
2023/04/22 03:07:18;;;;;;;15.60;11.88;;;;;;;7.08;100.00;100630.84;5050248;28;20035;-62
2023/04/22 03:09:43;;;;;;;12.63;8.40;;;;;;;7.05;100.00;100628.50;5050624;28;20051;-63
2023/04/22 03:12:09;;;;;;;10.13;8.50;;;;;;;7.01;100.00;100619.22;5049303;28;20029;-62
2023/04/22 03:14:34;;;;;;;10.70;9.15;;;;;;;7.04;100.00;100620.72;5043206;28;20134;-63
2023/04/22 03:17:00;;;;;;;13.23;11.02;;;;;;;6.98;100.00;100615.06;5048921;28;20033;-62
2023/04/22 03:19:25;;;;;;;16.23;11.80;;;;;;;7.05;100.00;100615.31;5052088;28;20033;-62
2023/04/22 03:21:50;;;;;;;16.85;12.57;;;;;;;7.06;100.00;100609.06;5049385;28;20041;-62
2023/04/22 03:24:15;;;;;;;18.83;13.35;;;;;;;7.08;100.00;100612.41;5052065;28;20036;-63
2023/04/22 03:26:41;;;;;;;18.27;13.38;;;;;;;7.11;100.00;100609.47;5048425;28;20377;-62
2023/04/22 03:29:06;;;;;;;17.02;13.38;;;;;;;7.11;100.00;100604.19;5049902;28;20070;-62
2023/04/22 03:31:31;;;;;;;17.90;14.18;;;;;;;7.10;100.00;100591.97;5051590;28;20028;-62
2023/04/22 03:33:57;;;;;;;17.98;11.00;;;;;;;7.05;100.00;100594.22;5046738;28;20104;-62
2023/04/22 03:36:22;;;;;;;15.70;11.88;;;;;;;6.99;100.00;100594.78;5045485;28;20033;-62
2023/04/22 03:38:47;;;;;;;15.27;11.90;;;;;;;6.93;100.00;100595.38;5051099;28;20052;-62
2023/04/22 03:41:12;;;;;;;16.73;13.25;;;;;;;6.87;100.00;100583.59;5045625;28;20480;-62
2023/04/22 03:43:38;;;;;;;14.57;11.77;;;;;;;6.83;100.00;100590.97;5050042;28;20048;-63
2023/04/22 03:46:03;;;;;;;17.42;13.25;;;;;;;6.76;100.00;100584.59;5049749;28;20029;-63
2023/04/22 03:48:33;;;;;;;17.73;13.93;;;;;;;6.68;100.00;100581.84;5049865;28;20049;-62
2023/04/22 03:50:58;;;;;;;18.23;14.45;;;;;;;6.64;100.00;100580.47;5051080;28;20485;-62
2023/04/22 03:53:24;;;;;;;20.58;15.30;;;;;;;6.47;100.00;100574.97;5051778;28;20079;-62
2023/04/22 03:55:49;;;;;;;19.60;15.60;;;;;;;6.50;100.00;100572.03;5042516;28;20036;-62
2023/04/22 03:58:14;;;;;;;18.77;14.95;;;;;;;6.48;100.00;100576.63;5050656;28;20522;-63
2023/04/22 04:00:40;;;;;;;19.10;14.65;;;;;;;6.53;100.00;100574.41;5048339;28;20096;-62
2023/04/22 04:03:05;;;;;;;18.80;14.68;;;;;;;6.50;100.00;100572.03;5043637;28;20045;-62
2023/04/22 04:05:31;;;;;;;20.90;15.30;;;;;;;6.49;100.00;100578.28;5051097;28;20059;-62
2023/04/22 04:07:56;;;;;;;18.55;14.50;;;;;;;6.48;100.00;100566.09;5046494;28;20038;-62
2023/04/22 04:10:21;;;;;;;18.73;14.23;;;;;;;6.44;100.00;100559.44;5050888;28;20035;-62
2023/04/22 04:12:46;;;;;;;19.58;14.02;;;;;;;6.48;100.00;100555.53;5042519;28;20493;-63
2023/04/22 04:15:12;;;;;;;19.15;14.98;;;;;;;6.43;100.00;100568.31;5051091;28;20033;-62
2023/04/22 04:17:37;;;;;;;17.65;14.00;;;;;;;6.44;100.00;100562.91;5050587;28;20520;-62
2023/04/22 04:20:09;;;;;;;19.85;14.05;;;;;;;6.50;100.00;100564.13;5050198;28;20040;-62
2023/04/22 04:22:34;;;;;;;19.60;14.80;;;;;;;6.49;100.00;100573.00;5041706;28;20025;-62
2023/04/22 04:25:00;;;;;;;17.92;14.27;;;;;;;6.48;100.00;100571.34;5047767;28;20036;-63
2023/04/22 04:27:25;;;;;;;20.88;14.20;;;;;;;6.38;100.00;100560.84;5049103;28;20040;-63
2023/04/22 04:29:51;;;;;;;20.17;14.30;;;;;;;6.41;100.00;100557.09;5050356;28;20699;-62
2023/04/22 04:32:17;;;;;;;17.77;14.45;;;;;;;6.44;100.00;100551.53;5049763;28;20029;-62
2023/04/22 04:34:42;;;;;;;17.90;14.60;;;;;;;6.46;100.00;100546.94;5049751;28;20033;-63
2023/04/22 04:37:08;;;;;;;18.88;14.23;;;;;;;6.56;100.00;100563.56;5049018;28;20468;-63
2023/04/22 04:39:33;;;;;;;24.42;14.93;;;;;;;6.56;100.00;100558.28;5049488;28;20041;-63
2023/04/22 04:41:59;;;;;;;18.95;15.30;;;;;;;6.57;100.00;100554.69;5049916;28;20392;-63
2023/04/22 04:44:25;;;;;;;20.02;15.70;;;;;;;6.57;100.00;100559.94;5048536;28;20491;-62
2023/04/22 04:46:50;;;;;;;22.08;15.48;;;;;;;6.56;100.00;100560.94;5048828;28;20037;-62
2023/04/22 04:49:16;;;;;;;21.40;16.15;;;;;;;6.58;100.00;100569.50;5049978;28;20037;-62
2023/04/22 04:51:41;;;;;;;20.27;15.32;;;;;;;6.55;100.00;100561.91;5048688;28;20040;-63
2023/04/22 04:54:06;;;;;;;21.42;15.20;;;;;;;6.65;100.00;100566.34;5050145;28;20029;-62
2023/04/22 04:56:33;;;;;;;21.70;15.77;;;;;;;6.63;100.00;100568.25;5048957;28;20044;-62
2023/04/22 04:58:58;;;;;;;19.33;15.95;;;;;;;6.63;100.00;100578.81;5048449;28;20040;-63
2023/04/22 05:01:24;;;;;;;19.48;15.35;;;;;;;6.64;100.00;100569.91;5050139;28;20037;-62
2023/04/22 05:03:49;;;;;;;20.92;15.10;;;;;;;6.68;100.00;100566.88;5047050;28;20040;-63
2023/04/22 05:06:14;;;;;;;21.65;15.55;;;;;;;6.73;100.00;100569.06;5045236;28;20119;-63
2023/04/22 05:08:40;;;;;;;20.48;15.90;;;;;;;6.73;100.00;100569.06;5048095;28;20106;-62
2023/04/22 05:11:05;;;;;;;19.75;15.55;;;;;;;6.71;100.00;100571.03;5046149;28;20402;-62
2023/04/22 05:13:30;;;;;;;19.10;15.52;;;;;;;6.69;100.00;100567.69;5045072;28;20486;-62
2023/04/22 05:15:56;;;;;;;18.83;15.65;;;;;;;6.67;100.00;100552.00;5051262;28;20106;-62
2023/04/22 05:18:21;;;;;;;20.95;16.08;;;;;;;6.76;100.00;100546.88;5049866;28;20480;-62
2023/04/22 05:20:46;;;;;;;21.25;16.88;;;;;;;6.72;100.00;100551.59;5050380;28;20028;-63
2023/04/22 05:23:12;;;;;;;20.25;16.52;;;;;;;6.78;100.00;100548.41;5054782;28;20037;-62
2023/04/22 05:25:37;;;;;;;20.92;17.23;;;;;;;6.82;100.00;100557.66;5044828;28;20052;-63
2023/04/22 05:28:03;;;;;;;20.45;16.40;;;;;;;6.88;100.00;100560.69;5050672;28;20029;-62
2023/04/22 05:30:28;;;;;;;21.95;17.90;;;;;;;6.86;100.00;100564.31;5044761;28;20385;-62
2023/04/22 05:32:54;;;;;;;22.45;17.35;;;;;;;6.92;100.00;100562.94;5042252;28;20859;-63
2023/04/22 05:35:19;;;;;;;22.65;19.98;;;;;;;6.91;100.00;100560.44;5044788;28;20079;-62
2023/04/22 05:37:45;;;;;;;25.42;20.38;;;;;;;6.90;100.00;100564.03;5046091;28;20032;-62
2023/04/22 05:40:10;;;;;;;22.17;19.65;;;;;;;6.92;100.00;100562.06;5047037;28;20377;-62
2023/04/22 05:42:36;;;;;;;25.98;20.17;;;;;;;6.91;100.00;100552.50;5042566;28;20033;-62
2023/04/22 05:45:01;;;;;;;26.02;21.02;;;;;;;6.93;100.00;100547.91;5042180;28;20024;-62
2023/04/22 05:47:26;;;;;;;25.65;22.20;;;;;;;6.95;100.00;100549.44;5048195;28;20530;-62
2023/04/22 05:49:52;;;;;;;26.05;21.40;;;;;;;7.07;100.00;100554.53;5045525;28;20049;-63
2023/04/22 05:52:17;;;;;;;25.17;22.48;;;;;;;7.10;100.00;100552.44;5043303;28;20021;-62
2023/04/22 05:54:43;;;;;;;29.20;21.35;;;;;;;7.06;100.00;100553.69;5045449;28;20461;-62
2023/04/22 05:57:08;;;;;;;25.02;21.27;;;;;;;7.07;100.00;100550.09;5048601;28;20032;-63
2023/04/22 05:59:33;;;;;;;24.27;20.98;;;;;;;7.17;100.00;100544.78;5045894;28;20033;-63
2023/04/22 06:01:58;;;;;;;30.52;22.35;;;;;;;7.26;100.00;100548.34;5045974;28;20040;-62
2023/04/22 06:04:24;;;;;;;25.55;22.77;;;;;;;7.29;100.00;100545.41;5048156;28;20048;-63
2023/04/22 06:06:52;;;;;;;25.50;22.15;;;;;;;7.41;100.00;100546.03;5046568;28;20033;-63
2023/04/22 06:09:18;;;;;;;23.92;20.83;;;;;;;7.49;100.00;100547.91;5048533;28;20069;-62
2023/04/22 06:11:43;;;;;;;23.40;20.30;;;;;;;7.51;100.00;100545.97;5048025;28;20065;-63
2023/04/22 06:14:08;;;;;;;24.40;20.58;;;;;;;7.53;100.00;100542.22;5046528;28;20037;-63
2023/04/22 06:16:34;;;;;;;24.17;20.13;;;;;;;7.66;100.00;100549.75;5042493;28;20413;-62
2023/04/22 06:18:59;;;;;;;23.20;19.83;;;;;;;7.74;100.00;100545.56;5042648;28;20034;-62
2023/04/22 06:21:24;;;;;;;24.40;20.88;;;;;;;7.81;100.00;100546.59;5047832;28;20040;-62
2023/04/22 06:23:49;;;;;;;23.30;19.52;;;;;;;7.89;100.00;100538.75;5043735;28;20722;-63
2023/04/22 06:26:15;;;;;;;24.00;20.00;;;;;;;8.00;100.00;100536.88;5052638;28;20115;-62
2023/04/22 06:28:40;;;;;;;23.33;19.63;;;;;;;8.08;100.00;100534.28;5044546;28;20469;-63
2023/04/22 06:31:05;;;;;;;22.75;19.75;;;;;;;8.19;100.00;100533.25;5043686;28;20032;-63
2023/04/22 06:33:31;;;;;;;24.80;19.98;;;;;;;8.30;100.00;100540.88;5043064;28;20060;-62
2023/04/22 06:35:56;;;;;;;23.20;19.08;;;;;;;8.41;100.00;100542.47;5045917;28;20059;-63
2023/04/22 06:38:21;;;;;;;23.35;19.63;;;;;;;8.48;100.00;100532.94;5045621;28;20033;-62
2023/04/22 06:40:46;;;;;;;24.73;19.92;;;;;;;8.58;100.00;100542.59;5045285;28;20037;-63
2023/04/22 06:43:12;;;;;;;22.25;19.08;;;;;;;8.65;100.00;100538.38;5047959;28;20053;-63
2023/04/22 06:45:37;;;;;;;24.30;18.83;;;;;;;8.73;100.00;100533.13;5044965;28;20033;-63
2023/04/22 06:48:02;;;;;;;22.08;18.95;;;;;;;8.82;100.00;100527.84;5044875;28;20155;-64
2023/04/22 06:50:27;;;;;;;21.13;18.38;;;;;;;8.88;100.00;100521.94;5042141;28;20124;-63
2023/04/22 06:52:53;;;;;;;21.85;18.27;;;;;;;8.93;100.00;100518.84;5048348;28;20033;-61
2023/04/22 06:55:18;;;;;;;21.20;17.73;;;;;;;8.96;100.00;100522.00;5048354;28;20029;-62
2023/04/22 06:57:44;;;;;;;22.85;18.02;;;;;;;9.03;100.00;100535.41;5046033;28;20029;-63
2023/04/22 07:00:11;;;;;;;22.25;17.83;;;;;;;9.10;100.00;100525.00;5046197;28;20055;-63
2023/04/22 07:02:36;;;;;;;23.33;18.63;;;;;;;9.22;100.00;100534.31;5045039;28;20040;-63
2023/04/22 07:05:01;;;;;;;23.75;18.67;;;;;;;9.35;100.00;100533.03;5048519;28;20029;-62
2023/04/22 07:07:27;;;;;;;23.25;17.90;;;;;;;9.45;100.00;100522.31;5039822;28;20033;-63
2023/04/22 07:09:52;;;;;;;22.25;17.42;;;;;;;9.53;100.00;100528.44;5050143;28;20079;-63
2023/04/22 07:12:18;;;;;;;21.33;16.67;;;;;;;9.65;100.00;100522.84;5046510;28;20058;-63
2023/04/22 07:14:44;;;;;;;23.55;16.30;;;;;;;9.71;100.00;100519.53;5047393;28;20024;-63
2023/04/22 07:17:10;;;;;;;20.55;15.68;;;;;;;9.72;100.00;100517.75;5043182;28;20033;-63
2023/04/22 07:19:36;;;;;;;20.83;15.50;;;;;;;9.73;100.00;100519.38;5045099;28;20464;-63
2023/04/22 07:22:02;;;;;;;23.15;15.98;;;;;;;9.74;100.00;100521.88;5041424;28;20032;-62
2023/04/22 07:24:27;;;;;;;19.67;15.13;;;;;;;9.75;100.00;100515.59;5048514;28;20053;-63
2023/04/22 07:26:52;;;;;;;18.52;15.40;;;;;;;9.79;100.00;100524.88;5046630;28;20445;-63
2023/04/22 07:29:18;;;;;;;21.42;15.73;;;;;;;9.88;100.00;100524.88;5043420;28;20036;-63
2023/04/22 07:31:43;;;;;;;21.58;15.63;;;;;;;9.91;100.00;100528.00;5046376;28;20039;-63
2023/04/22 07:34:09;;;;;;;20.00;15.38;;;;;;;9.96;100.00;100527.50;5044375;28;20070;-63
2023/04/22 07:36:35;;;;;;;20.58;14.90;;;;;;;10.00;100.00;100525.34;5048588;28;20039;-63
2023/04/22 07:39:00;;;;;;;22.20;15.27;;;;;;;10.11;100.00;100521.56;5039579;28;20041;-62
2023/04/22 07:41:25;;;;;;;19.42;15.25;;;;;;;10.25;100.00;100518.22;5039159;28;20045;-63
2023/04/22 07:43:51;;;;;;;19.65;14.27;;;;;;;10.33;100.00;100522.69;5039016;28;20029;-63
2023/04/22 07:46:16;;;;;;;20.08;14.80;;;;;;;10.39;100.00;100523.84;5041506;28;20050;-63
2023/04/22 07:48:41;;;;;;;22.55;15.10;;;;;;;10.38;100.00;100532.78;5050204;28;20396;-63
2023/04/22 07:51:07;;;;;;;19.67;15.05;;;;;;;10.36;100.00;100519.69;5047623;28;20037;-63
2023/04/22 07:53:32;;;;;;;20.65;14.98;;;;;;;10.39;100.00;100511.44;5048746;28;20512;-63
2023/04/22 07:55:57;;;;;;;19.83;15.30;;;;;;;10.49;100.00;100504.16;5041402;28;20074;-63
2023/04/22 07:58:22;;;;;;;19.75;14.57;;;;;;;10.55;100.00;100502.63;5048715;28;20110;-64
2023/04/22 08:00:48;;;;;;;19.77;14.95;;;;;;;10.62;100.00;100498.31;5048232;28;20028;-63
2023/04/22 08:03:13;;;;;;;19.77;14.60;;;;;;;10.68;100.00;100501.28;5042564;28;20033;-63
2023/04/22 08:05:38;;;;;;;20.00;14.73;;;;;;;10.70;100.00;100491.34;5045841;28;20043;-63
2023/04/22 08:08:05;;;;;;;19.75;14.82;;;;;;;10.75;100.00;100486.31;5046471;28;20029;-63
2023/04/22 08:10:30;;;;;;;18.13;13.82;;;;;;;10.81;100.00;100485.63;5043484;28;20040;-63
2023/04/22 08:12:55;;;;;;;20.25;14.57;;;;;;;10.87;100.00;100478.84;5045822;28;20419;-63
2023/04/22 08:15:21;;;;;;;17.38;13.70;;;;;;;10.95;100.00;100483.28;5048002;28;20401;-63
2023/04/22 08:17:46;;;;;;;18.88;14.35;;;;;;;11.06;100.00;100482.06;5040659;28;20029;-63
2023/04/22 08:20:14;;;;;;;19.48;13.80;;;;;;;11.16;100.00;100486.16;5043031;28;20041;-63
2023/04/22 08:22:41;;;;;;;18.08;13.40;;;;;;;11.28;100.00;100475.13;5045708;28;20045;-63
2023/04/22 08:25:08;;;;;;;18.50;14.07;;;;;;;11.33;100.00;100478.09;5049451;28;20086;-63
2023/04/22 08:27:33;;;;;;;18.80;13.35;;;;;;;11.34;100.00;100476.28;5048394;28;20037;-62
2023/04/22 08:29:58;;;;;;;19.15;13.30;;;;;;;11.44;100.00;100475.03;5049756;28;20032;-62
2023/04/22 08:32:25;;;;;;;19.65;12.82;;;;;;;11.55;100.00;100480.97;5043722;28;20531;-62
2023/04/22 08:34:50;;;;;;;16.98;12.18;;;;;;;11.62;100.00;100481.91;5049270;28;20029;-63
2023/04/22 08:37:16;;;;;;;18.15;12.05;;;;;;;11.66;100.00;100472.59;5051730;28;20021;-63
2023/04/22 08:39:41;;;;;;;15.75;11.23;;;;;;;11.82;100.00;100465.47;5051820;28;20104;-63
2023/04/22 08:42:07;;;;;;;18.52;11.07;;;;;;;11.97;100.00;100463.69;5050140;28;20028;-63
2023/04/22 08:44:34;;;;;;;15.70;11.23;;;;;;;12.08;100.00;100449.16;5050333;28;20045;-63
2023/04/22 08:47:00;;;;;;;15.57;10.45;;;;;;;12.15;98.79;100454.59;5049278;28;20024;-63
2023/04/22 08:49:27;;;;;;;14.20;10.43;;;;;;;12.28;97.77;100443.31;5044247;28;20385;-63
2023/04/22 08:51:54;;;;;;;13.85;10.10;;;;;;;12.35;96.67;100446.06;5055433;28;20025;-62
2023/04/22 08:54:20;;;;;;;15.27;10.55;;;;;;;12.45;98.70;100438.66;5053508;28;20036;-63
2023/04/22 08:56:48;;;;;;;13.30;9.80;;;;;;;12.59;97.97;100444.94;5051978;28;20041;-63
2023/04/22 08:59:15;;;;;;;15.20;10.02;;;;;;;12.71;97.55;100442.66;5054733;28;20029;-63
2023/04/22 09:01:41;;;;;;;13.15;9.38;;;;;;;12.73;94.67;100437.97;5053731;28;20033;-63
2023/04/22 09:04:09;;;;;;;11.88;9.05;;;;;;;12.74;94.26;100431.63;5053822;28;20545;-62
2023/04/22 09:06:34;;;;;;;12.98;9.10;;;;;;;12.88;92.96;100431.81;5052513;28;20361;-63
2023/04/22 09:09:00;;;;;;;12.80;9.27;;;;;;;12.94;95.69;100441.72;5052734;28;20075;-63
2023/04/22 09:11:26;;;;;;;13.75;9.30;;;;;;;13.00;94.80;100440.13;5049291;28;20048;-63
2023/04/22 09:13:53;;;;;;;13.35;9.30;;;;;;;13.13;95.44;100428.81;5046955;28;20033;-63
2023/04/22 09:16:18;;;;;;;14.43;8.85;;;;;;;13.27;94.24;100441.25;5052183;28;20112;-63
2023/04/22 09:18:47;;;;;;;11.23;8.63;;;;;;;13.40;92.67;100434.41;5053788;28;20108;-63
2023/04/22 09:21:12;;;;;;;12.25;8.55;;;;;;;13.48;91.71;100439.66;5052983;28;20048;-63
2023/04/22 09:23:49;;;;;;;13.18;8.85;;;;;;;13.61;91.09;100441.59;5053045;28;20024;-63
2023/04/22 09:26:19;;;;;;;12.50;9.30;;;;;;;13.69;91.28;100443.28;5054718;28;20078;-63
2023/04/22 09:28:52;;;;;;;12.50;8.77;;;;;;;13.77;89.63;100424.50;5054649;28;20033;-63
2023/04/22 09:31:20;;;;;;;10.95;8.15;;;;;;;13.87;90.28;100428.69;5054031;28;20025;-62
2023/04/22 09:33:57;;;;;;;13.35;8.88;;;;;;;14.01;89.01;100425.09;5053951;28;20390;-64
2023/04/22 09:36:29;;;;;;;13.48;9.20;;;;;;;14.12;89.19;100429.06;5053696;28;20040;-63
2023/04/22 09:38:57;;;;;;;12.93;8.68;;;;;;;14.23;87.77;100433.03;5052855;28;20108;-63
2023/04/22 09:41:30;;;;;;;11.25;8.48;;;;;;;14.30;85.76;100428.56;5050290;28;20040;-63
2023/04/22 09:43:56;;;;;;;;;;;;;;;14.37;89.75;100434.75;5054612;28;20044;-63
2023/04/22 09:46:23;;;;;;;12.77;8.85;;;;;;;14.45;86.27;100435.63;5053638;28;20352;-63
2023/04/22 09:48:49;;;;;;;14.65;8.98;;;;;;;14.49;85.77;100444.88;5052868;28;20076;-63
2023/04/22 09:51:16;;;;;;;11.88;8.60;;;;;;;14.57;85.77;100449.22;5052591;28;20021;-63
2023/04/22 09:53:41;;;;;;;12.27;8.80;;;;;;;14.63;84.85;100443.94;5052723;28;20088;-63
2023/04/22 09:56:07;;;;;;;13.30;9.02;;;;;;;14.67;85.72;100433.69;5052683;28;20577;-63
2023/04/22 09:58:38;;;;;;;9.75;8.10;;;;;;;14.76;85.60;100429.03;5050892;28;20036;-63
2023/04/22 10:01:03;;;;;;;10.48;7.90;;;;;;;14.90;83.08;100438.72;5052707;28;20025;-63
2023/04/22 10:03:29;;;;;;;11.43;8.07;;;;;;;15.03;83.20;100437.09;5054092;28;20090;-63
2023/04/22 10:05:54;;;;;;;10.52;8.20;;;;;;;15.06;80.98;100437.53;5053796;28;20033;-63
2023/04/22 10:08:20;;;;;;;11.93;8.23;;;;;;;15.17;81.52;100428.13;5051927;28;20025;-64
2023/04/22 10:10:45;;;;;;;11.55;8.35;;;;;;;15.41;82.21;100428.56;5052828;28;20029;-63
2023/04/22 10:13:11;;;;;;;11.90;8.32;;;;;;;15.46;79.39;100431.44;5046367;28;20660;-60
2023/04/22 10:15:39;;;;;;;11.82;8.77;;;;;;;15.58;79.24;100438.84;5051603;28;20656;-64
2023/04/22 10:18:08;;;;;;;11.70;8.85;;;;;;;15.56;78.94;100446.25;5050451;28;20021;-63
2023/04/22 10:20:39;;;;;;;10.70;8.27;;;;;;;15.57;78.16;100443.38;5045732;28;20024;-64
2023/04/22 10:23:10;;;;;;;10.70;8.32;;;;;;;15.79;76.94;100445.03;5053466;28;20025;-64
2023/04/22 10:25:38;;;;;;;12.75;7.88;;;;;;;15.95;76.98;100444.66;5053829;28;20033;-63
2023/04/22 10:28:06;;;;;;;10.95;7.63;;;;;;;16.00;76.44;100439.47;5053217;28;20024;-63
2023/04/22 10:30:37;;;;;;;11.32;7.60;;;;;;;15.99;75.46;100435.16;5051745;28;20536;-64
2023/04/22 10:33:27;;;;;;;14.10;7.10;;;;;;;15.97;74.23;100431.88;5051099;28;20033;-64
2023/04/22 10:36:16;;;;;;;10.00;7.07;;;;;;;16.03;75.61;100432.09;5051291;28;20025;-63
2023/04/22 10:38:53;;;;;;;9.05;7.15;;;;;;;16.02;74.09;100422.44;5051898;28;20024;-63
2023/04/22 10:41:23;;;;;;;11.45;7.18;;;;;;;15.98;73.67;100412.13;5044052;28;20060;-63
2023/04/22 10:43:57;;;;;;;9.15;6.32;;;;;;;15.91;73.14;100419.31;5051744;28;20033;-63
2023/04/22 10:46:38;;;;;;;7.80;5.45;;;;;;;15.77;73.20;100426.53;5042973;28;20033;-62
2023/04/22 10:49:17;;;;;;;8.00;5.40;;;;;;;15.60;74.03;100426.13;5047241;28;20037;-63
2023/04/22 10:51:44;;;;;;;7.70;5.20;;;;;;;15.44;72.34;100430.81;5053044;28;20017;-63
2023/04/22 10:54:27;;;;;;;9.15;5.65;;;;;;;15.33;74.76;100431.41;5047602;28;20029;-63
2023/04/22 10:57:02;;;;;;;7.28;5.35;;;;;;;15.22;74.43;100435.53;5041324;28;20041;-63
2023/04/22 10:59:28;;;;;;;8.75;5.95;;;;;;;15.11;75.70;100442.28;5045796;28;20045;-63
2023/04/22 11:01:53;;;;;;;9.50;5.97;;;;;;;15.02;75.24;100443.47;5042691;28;20091;-63
2023/04/22 11:04:22;;;;;;;8.30;5.88;;;;;;;14.91;76.04;100443.03;5047078;28;20035;-63
2023/04/22 11:07:25;;;;;;;10.50;6.50;;;;;;;14.84;76.68;100446.72;5041343;28;20029;-63